createdAt,value
2023-02-18T00:00:27.780Z,8.73
2023-02-18T00:02:55.805Z,8.80
2023-02-18T00:05:22.907Z,8.80
2023-02-18T00:07:49.405Z,8.82
2023-02-18T00:10:16.671Z,8.55
2023-02-18T00:12:43.110Z,8.85
2023-02-18T00:15:10.132Z,8.92
2023-02-18T00:17:37.551Z,8.94
2023-02-18T00:20:06.029Z,8.96
2023-02-18T00:22:32.413Z,8.99
2023-02-18T00:24:58.879Z,8.84
2023-02-18T00:27:25.287Z,8.99
2023-02-18T00:29:51.675Z,8.89
2023-02-18T00:32:18.200Z,8.93
2023-02-18T00:34:44.716Z,8.90
2023-02-18T00:37:11.155Z,8.89
2023-02-18T00:39:37.612Z,8.88
2023-02-18T00:42:04.181Z,8.86
2023-02-18T00:44:30.630Z,8.67
2023-02-18T00:46:57.042Z,8.81
2023-02-18T00:49:23.537Z,8.74
2023-02-18T00:51:50.428Z,8.78
2023-02-18T00:54:16.876Z,8.78
2023-02-18T00:56:43.271Z,8.76
2023-02-18T00:59:09.680Z,8.76
2023-02-18T01:01:36.211Z,8.72
2023-02-18T01:04:02.648Z,8.67
2023-02-18T01:06:29.267Z,8.66
2023-02-18T01:08:55.761Z,8.75
2023-02-18T01:11:22.809Z,8.78
2023-02-18T01:13:49.379Z,8.73
2023-02-18T01:16:17.152Z,8.45
2023-02-18T01:18:43.696Z,8.60
2023-02-18T01:21:10.945Z,8.75
2023-02-18T01:23:41.416Z,8.75
2023-02-18T01:26:08.519Z,8.68
2023-02-18T01:28:35.496Z,8.75
2023-02-18T01:31:07.893Z,8.75
2023-02-18T01:33:34.899Z,8.72
2023-02-18T01:36:01.656Z,8.55
2023-02-18T01:38:28.415Z,8.75
2023-02-18T01:40:54.975Z,8.70
2023-02-18T01:43:22.265Z,8.53
2023-02-18T01:46:07.720Z,8.74
2023-02-18T01:48:48.646Z,8.70
2023-02-18T01:51:20.222Z,8.63
2023-02-18T01:53:48.840Z,8.64
2023-02-18T01:56:22.828Z,8.61
2023-02-18T01:58:50.784Z,8.39
2023-02-18T02:01:17.350Z,8.56
2023-02-18T02:03:43.757Z,8.35
2023-02-18T02:06:20.313Z,8.54
2023-02-18T02:08:49.138Z,8.44
2023-02-18T02:11:38.999Z,8.55
2023-02-18T02:14:25.741Z,8.60
2023-02-18T02:17:11.318Z,8.60
2023-02-18T02:19:56.520Z,8.58
2023-02-18T02:22:29.106Z,8.55
2023-02-18T02:25:37.449Z,8.57
2023-02-18T02:28:23.392Z,8.56
2023-02-18T02:30:57.169Z,8.51
2023-02-18T02:34:08.763Z,8.56
2023-02-18T02:36:35.088Z,8.51
2023-02-18T02:39:13.785Z,8.52
2023-02-18T02:42:00.417Z,8.53
2023-02-18T02:44:39.286Z,8.53
2023-02-18T02:47:18.065Z,8.51
2023-02-18T02:50:00.948Z,8.56
2023-02-18T02:52:33.082Z,8.56
2023-02-18T02:54:59.732Z,8.54
2023-02-18T02:57:26.123Z,8.55
2023-02-18T02:59:58.172Z,8.56
2023-02-18T03:02:40.730Z,8.56
2023-02-18T03:05:26.077Z,8.64
2023-02-18T03:08:17.220Z,8.59
2023-02-18T03:11:02.363Z,8.65
2023-02-18T03:13:56.388Z,8.67
2023-02-18T03:16:25.674Z,8.66
2023-02-18T03:19:09.952Z,8.63
2023-02-18T03:22:01.967Z,8.68
2023-02-18T03:24:39.187Z,8.60
2023-02-18T03:27:12.333Z,8.75
2023-02-18T03:29:40.900Z,8.72
2023-02-18T03:32:11.260Z,8.66
2023-02-18T03:34:45.957Z,8.47
2023-02-18T03:37:14.326Z,8.59
2023-02-18T03:39:44.460Z,8.81
2023-02-18T03:42:11.213Z,8.79
2023-02-18T03:44:37.627Z,8.45
2023-02-18T03:47:04.329Z,8.33
2023-02-18T03:49:30.736Z,8.79
2023-02-18T03:51:57.121Z,8.79
2023-02-18T03:54:23.513Z,8.80
2023-02-18T03:56:49.928Z,8.82
2023-02-18T03:59:16.355Z,8.86
2023-02-18T04:01:42.847Z,8.88
2023-02-18T04:04:09.471Z,8.88
2023-02-18T04:06:36.393Z,8.89
2023-02-18T04:09:08.671Z,8.92
2023-02-18T04:11:39.503Z,8.92
2023-02-18T04:14:07.161Z,8.93
2023-02-18T04:16:33.828Z,8.87
2023-02-18T04:19:00.301Z,8.88
2023-02-18T04:21:26.713Z,8.82
2023-02-18T04:23:53.096Z,8.83
2023-02-18T04:26:19.598Z,8.78
2023-02-18T04:28:46.130Z,8.72
2023-02-18T04:31:12.652Z,8.74
2023-02-18T04:33:39.098Z,8.67
2023-02-18T04:36:06.241Z,8.64
2023-02-18T04:38:32.846Z,8.59
2023-02-18T04:40:59.352Z,8.51
2023-02-18T04:43:25.808Z,8.45
2023-02-18T04:45:52.232Z,8.22
2023-02-18T04:48:18.817Z,8.30
2023-02-18T04:50:45.380Z,8.37
2023-02-18T04:53:11.823Z,8.00
2023-02-18T04:55:38.224Z,7.75
2023-02-18T04:58:04.821Z,8.26
2023-02-18T05:00:31.253Z,8.31
2023-02-18T05:02:57.707Z,8.26
2023-02-18T05:05:24.133Z,8.24
2023-02-18T05:07:50.572Z,8.06
2023-02-18T05:10:17.637Z,8.33
2023-02-18T05:12:44.205Z,8.35
2023-02-18T05:15:10.751Z,8.10
2023-02-18T05:17:37.309Z,8.33
2023-02-18T05:20:05.004Z,8.15
2023-02-18T05:22:31.444Z,8.32
2023-02-18T05:24:57.975Z,8.25
2023-02-18T05:27:24.499Z,8.18
2023-02-18T05:29:50.972Z,8.28
2023-02-18T05:32:17.501Z,8.22
2023-02-18T05:34:44.053Z,8.13
2023-02-18T05:37:10.617Z,8.24
2023-02-18T05:39:37.193Z,8.13
2023-02-18T05:42:03.711Z,8.04
2023-02-18T05:44:30.458Z,8.11
2023-02-18T05:47:17.327Z,8.21
2023-02-18T05:49:44.150Z,7.91
2023-02-18T05:52:11.409Z,8.12
2023-02-18T05:54:38.785Z,7.48
2023-02-18T05:57:05.622Z,8.00
2023-02-18T05:59:32.223Z,8.07
2023-02-18T06:01:58.660Z,8.07
2023-02-18T06:04:25.096Z,8.06
2023-02-18T06:06:51.885Z,8.02
2023-02-18T06:09:18.342Z,7.85
2023-02-18T06:11:44.774Z,8.02
2023-02-18T06:14:11.304Z,8.00
2023-02-18T06:16:37.759Z,7.99
2023-02-18T06:19:05.337Z,7.62
2023-02-18T06:21:31.789Z,7.97
2023-02-18T06:23:58.254Z,7.94
2023-02-18T06:26:25.036Z,7.92
2023-02-18T06:28:51.678Z,7.92
2023-02-18T06:31:18.244Z,7.89
2023-02-18T06:33:44.918Z,7.86
2023-02-18T06:36:12.399Z,7.64
2023-02-18T06:38:44.686Z,7.85
2023-02-18T06:41:13.186Z,7.75
2023-02-18T06:43:39.793Z,7.83
2023-02-18T06:46:07.207Z,7.81
2023-02-18T06:48:34.033Z,7.69
2023-02-18T06:51:00.449Z,7.85
2023-02-18T06:53:26.863Z,7.85
2023-02-18T06:55:53.365Z,7.82
2023-02-18T06:58:19.797Z,7.84
2023-02-18T07:00:46.312Z,7.87
2023-02-18T07:03:14.166Z,7.90
2023-02-18T07:05:41.352Z,7.90
2023-02-18T07:08:08.221Z,7.92
2023-02-18T07:10:34.619Z,7.89
2023-02-18T07:13:01.080Z,7.89
2023-02-18T07:15:27.975Z,7.97
2023-02-18T07:17:54.738Z,8.01
2023-02-18T07:20:22.059Z,8.03
2023-02-18T07:22:48.991Z,8.04
2023-02-18T07:25:15.568Z,7.91
2023-02-18T07:27:42.371Z,8.01
2023-02-18T07:30:09.396Z,8.09
2023-02-18T07:32:36.530Z,8.02
2023-02-18T07:35:04.851Z,8.04
2023-02-18T07:37:31.879Z,7.99
2023-02-18T07:39:58.520Z,8.11
2023-02-18T07:42:24.968Z,8.09
2023-02-18T07:44:51.529Z,8.16
2023-02-18T07:47:19.753Z,8.18
2023-02-18T07:49:46.843Z,8.19
2023-02-18T07:52:14.837Z,8.20
2023-02-18T07:54:41.417Z,8.21
2023-02-18T07:57:07.882Z,8.16
2023-02-18T07:59:34.384Z,8.12
2023-02-18T08:02:00.854Z,8.06
2023-02-18T08:04:27.329Z,8.28
2023-02-18T08:06:53.755Z,8.28
2023-02-18T08:09:20.197Z,8.31
2023-02-18T08:11:46.618Z,8.33
2023-02-18T08:14:13.183Z,8.34
2023-02-18T08:16:39.749Z,8.37
2023-02-18T08:19:06.247Z,8.40
2023-02-18T08:21:32.850Z,8.38
2023-02-18T08:24:00.034Z,8.41
2023-02-18T08:26:26.812Z,8.35
2023-02-18T08:28:53.220Z,8.35
2023-02-18T08:31:26.192Z,8.46
2023-02-18T08:33:54.845Z,8.35
2023-02-18T08:36:22.180Z,8.41
2023-02-18T08:38:48.861Z,8.48
2023-02-18T08:41:15.843Z,8.46
2023-02-18T08:43:42.937Z,8.51
2023-02-18T08:46:16.221Z,8.50
2023-02-18T08:48:55.873Z,8.52
2023-02-18T08:51:23.149Z,8.57
2023-02-18T08:53:49.831Z,8.19
2023-02-18T08:56:17.682Z,8.59
2023-02-18T08:58:44.587Z,8.55
2023-02-18T09:01:12.410Z,8.65
2023-02-18T09:03:39.170Z,8.62
2023-02-18T09:06:06.198Z,8.65
2023-02-18T09:08:32.837Z,8.70
2023-02-18T09:11:01.587Z,8.70
2023-02-18T09:13:28.430Z,8.70
2023-02-18T09:16:04.900Z,8.77
2023-02-18T09:18:32.491Z,8.65
2023-02-18T09:21:00.165Z,8.80
2023-02-18T09:23:28.634Z,8.82
2023-02-18T09:25:55.641Z,8.77
2023-02-18T09:28:22.544Z,8.66
2023-02-18T09:30:49.039Z,8.83
2023-02-18T09:33:16.599Z,8.59
2023-02-18T09:35:45.543Z,8.90
2023-02-18T09:38:14.380Z,8.89
2023-02-18T09:40:45.389Z,8.90
2023-02-18T09:43:23.549Z,8.97
2023-02-18T09:45:53.114Z,8.90
2023-02-18T09:48:26.708Z,9.02
2023-02-18T09:50:53.750Z,9.03
2023-02-18T09:53:22.299Z,9.05
2023-02-18T09:55:50.830Z,9.05
2023-02-18T09:58:21.205Z,9.09
2023-02-18T10:00:52.996Z,8.92
2023-02-18T10:03:21.342Z,9.13
2023-02-18T10:06:02.830Z,9.12
2023-02-18T10:08:34.941Z,9.06
2023-02-18T10:11:01.837Z,9.14
2023-02-18T10:13:30.999Z,9.14
2023-02-18T10:15:57.516Z,9.15
2023-02-18T10:18:41.944Z,9.20
2023-02-18T10:21:19.351Z,9.14
2023-02-18T10:24:00.125Z,9.23
2023-02-18T10:26:27.277Z,9.09
2023-02-18T10:28:53.711Z,9.22
2023-02-18T10:31:34.252Z,9.26
2023-02-18T10:34:06.370Z,9.28
2023-02-18T10:36:49.571Z,9.30
2023-02-18T10:39:40.777Z,9.35
2023-02-18T10:42:45.643Z,9.42
2023-02-18T10:45:30.444Z,9.50
2023-02-18T10:48:12.045Z,9.58
2023-02-18T10:50:40.817Z,9.60
2023-02-18T10:53:44.144Z,9.69
2023-02-18T10:56:38.631Z,9.85
2023-02-18T10:59:11.362Z,9.74
2023-02-18T11:01:39.748Z,9.69
2023-02-18T11:04:17.814Z,9.87
2023-02-18T11:06:51.396Z,9.93
2023-02-18T11:09:36.591Z,9.90
2023-02-18T11:12:21.952Z,9.89
2023-02-18T11:15:10.138Z,9.89
2023-02-18T11:17:39.607Z,9.85
2023-02-18T11:20:23.811Z,10.03
2023-02-18T11:22:51.134Z,10.05
2023-02-18T11:25:22.778Z,10.13
2023-02-18T11:27:54.978Z,10.23
2023-02-18T11:30:23.383Z,10.29
2023-02-18T11:32:54.067Z,10.40
2023-02-18T11:35:23.996Z,10.43
2023-02-18T11:37:51.276Z,10.50
2023-02-18T11:40:31.375Z,10.52
2023-02-18T11:43:19.314Z,10.68
2023-02-18T11:45:46.848Z,10.72
2023-02-18T11:48:24.128Z,10.78
2023-02-18T11:50:53.429Z,10.84
2023-02-18T11:53:37.931Z,10.66
2023-02-18T11:56:16.504Z,11.13
2023-02-18T11:58:47.633Z,11.24
2023-02-18T12:01:40.620Z,11.31
2023-02-18T12:04:14.753Z,11.40
2023-02-18T12:07:05.564Z,11.46
2023-02-18T12:09:38.533Z,11.41
2023-02-18T12:12:48.282Z,11.57
2023-02-18T12:15:20.252Z,11.59
2023-02-18T12:18:04.290Z,11.42
2023-02-18T12:20:59.386Z,11.61
2023-02-18T12:23:52.558Z,11.65
2023-02-18T12:26:25.015Z,11.64
2023-02-18T12:29:17.647Z,11.61
2023-02-18T12:32:05.139Z,11.59
2023-02-18T12:34:39.652Z,11.45
2023-02-18T12:37:52.136Z,11.58
2023-02-18T12:40:57.389Z,11.53
2023-02-18T12:43:33.218Z,11.52
2023-02-18T12:46:21.881Z,11.47
2023-02-18T12:49:23.786Z,11.48
2023-02-18T12:52:04.056Z,11.41
2023-02-18T12:54:50.330Z,11.54
2023-02-18T12:57:41.568Z,11.48
2023-02-18T13:00:18.065Z,11.38
2023-02-18T13:03:16.541Z,11.41
2023-02-18T13:06:13.563Z,11.37
2023-02-18T13:08:53.519Z,11.37
2023-02-18T13:11:31.930Z,11.36
2023-02-18T13:14:08.972Z,11.34
2023-02-18T13:16:36.618Z,11.29
2023-02-18T13:19:21.469Z,11.34
2023-02-18T13:21:54.566Z,11.34
2023-02-18T13:24:34.750Z,11.33
2023-02-18T13:27:13.094Z,11.34
2023-02-18T13:29:52.626Z,11.29
2023-02-18T13:32:29.545Z,11.27
2023-02-18T13:35:14.136Z,11.23
2023-02-18T13:37:50.205Z,11.22
2023-02-18T13:40:22.891Z,11.18
2023-02-18T13:42:53.574Z,11.18
2023-02-18T13:45:31.936Z,11.15
2023-02-18T13:48:00.263Z,11.10
2023-02-18T13:50:28.090Z,10.99
2023-02-18T13:53:13.147Z,10.72
2023-02-18T13:55:46.583Z,11.03
2023-02-18T13:58:29.114Z,11.04
2023-02-18T14:01:02.098Z,10.97
2023-02-18T14:03:43.724Z,10.96
2023-02-18T14:06:28.045Z,10.91
2023-02-18T14:09:12.561Z,10.88
2023-02-18T14:11:53.495Z,10.80
2023-02-18T14:14:39.243Z,10.70
2023-02-18T14:17:20.659Z,10.64
2023-02-18T14:20:10.323Z,10.48
2023-02-18T14:22:39.725Z,10.31
2023-02-18T14:25:09.109Z,10.13
2023-02-18T14:27:37.420Z,9.90
2023-02-18T14:30:07.265Z,9.60
2023-02-18T14:32:34.524Z,9.59
2023-02-18T14:35:25.168Z,9.49
2023-02-18T14:38:13.336Z,9.24
2023-02-18T14:40:48.903Z,9.06
2023-02-18T14:43:33.324Z,8.88
2023-02-18T14:46:11.717Z,8.74
2023-02-18T14:49:04.248Z,8.67
2023-02-18T14:51:32.350Z,8.53
2023-02-18T14:54:06.241Z,8.51
2023-02-18T14:56:38.661Z,8.44
2023-02-18T14:59:06.231Z,8.38
2023-02-18T15:01:35.075Z,8.30
2023-02-18T15:04:03.353Z,8.30
2023-02-18T15:06:33.420Z,8.25
2023-02-18T15:09:01.545Z,8.31
2023-02-18T15:11:40.835Z,8.46
2023-02-18T15:14:30.501Z,8.56
2023-02-18T15:16:58.611Z,8.65
2023-02-18T15:19:28.586Z,8.72
2023-02-18T15:21:57.136Z,8.78
2023-02-18T15:24:26.517Z,8.82
2023-02-18T15:26:56.221Z,8.81
2023-02-18T15:29:25.535Z,8.87
2023-02-18T15:31:52.564Z,8.64
2023-02-18T15:34:39.541Z,8.70
2023-02-18T15:37:08.291Z,8.74
2023-02-18T15:39:38.533Z,8.69
2023-02-18T15:42:17.179Z,8.78
2023-02-18T15:44:53.537Z,8.59
2023-02-18T15:47:21.545Z,8.46
2023-02-18T15:49:54.025Z,8.29
2023-02-18T15:52:29.277Z,8.28
2023-02-18T15:55:00.355Z,8.20
2023-02-18T15:57:29.575Z,8.06
2023-02-18T16:00:16.097Z,7.77
2023-02-18T16:02:55.621Z,7.93
2023-02-18T16:05:26.233Z,7.93
2023-02-18T16:07:58.364Z,7.90
2023-02-18T16:10:36.783Z,7.88
2023-02-18T16:13:04.776Z,7.75
2023-02-18T16:15:43.112Z,7.82
2023-02-18T16:18:42.422Z,7.84
2023-02-18T16:21:17.824Z,7.82
2023-02-18T16:23:54.359Z,7.80
2023-02-18T16:26:31.124Z,7.49
2023-02-18T16:29:15.102Z,7.65
2023-02-18T16:31:42.695Z,7.72
2023-02-18T16:34:09.299Z,7.78
2023-02-18T16:36:35.752Z,7.77
2023-02-18T16:39:02.215Z,7.30
2023-02-18T16:41:29.254Z,7.65
2023-02-18T16:43:55.780Z,7.78
2023-02-18T16:46:24.187Z,7.75
2023-02-18T16:48:54.910Z,7.54
2023-02-18T16:51:29.672Z,7.35
2023-02-18T16:53:56.390Z,7.64
2023-02-18T16:56:25.406Z,7.58
2023-02-18T16:58:52.326Z,7.51
2023-02-18T17:01:24.109Z,7.44
2023-02-18T17:03:51.774Z,7.02
2023-02-18T17:06:19.084Z,7.14
2023-02-18T17:08:46.037Z,7.20
2023-02-18T17:11:20.852Z,7.13
2023-02-18T17:13:49.000Z,7.06
2023-02-18T17:16:16.301Z,6.80
2023-02-18T17:18:43.754Z,6.77
2023-02-18T17:21:15.313Z,6.86
2023-02-18T17:23:42.495Z,6.82
2023-02-18T17:26:27.052Z,6.79
2023-02-18T17:28:55.569Z,6.73
2023-02-18T17:31:26.451Z,6.71
2023-02-18T17:33:58.694Z,6.50
2023-02-18T17:36:25.749Z,6.68
2023-02-18T17:38:52.375Z,6.69
2023-02-18T17:41:19.207Z,6.61
2023-02-18T17:43:45.752Z,6.54
2023-02-18T17:46:14.253Z,6.77
2023-02-18T17:48:41.313Z,6.59
2023-02-18T17:51:08.394Z,6.44
2023-02-18T17:53:35.433Z,6.60
2023-02-18T17:56:02.194Z,6.73
2023-02-18T17:58:28.563Z,6.86
2023-02-18T18:00:57.439Z,6.85
2023-02-18T18:03:23.962Z,6.83
2023-02-18T18:05:52.090Z,6.76
2023-02-18T18:08:19.078Z,6.76
2023-02-18T18:10:58.574Z,6.74
2023-02-18T18:13:27.960Z,6.64
2023-02-18T18:15:56.865Z,6.52
2023-02-18T18:18:24.757Z,6.57
2023-02-18T18:20:54.287Z,6.49
2023-02-18T18:23:21.606Z,6.48
2023-02-18T18:25:56.073Z,6.45
2023-02-18T18:28:23.230Z,6.41
2023-02-18T18:30:52.278Z,6.07
2023-02-18T18:33:26.039Z,6.33
2023-02-18T18:35:54.358Z,6.28
2023-02-18T18:38:22.656Z,6.20
2023-02-18T18:40:50.316Z,6.15
2023-02-18T18:43:21.573Z,6.16
2023-02-18T18:45:49.319Z,6.12
2023-02-18T18:48:16.592Z,5.99
2023-02-18T18:50:43.337Z,6.05
2023-02-18T18:53:24.825Z,5.82
2023-02-18T18:55:54.584Z,5.99
2023-02-18T18:58:24.152Z,5.87
2023-02-18T19:00:54.216Z,5.84
2023-02-18T19:03:22.239Z,5.92
2023-02-18T19:05:49.875Z,5.86
2023-02-18T19:08:17.906Z,5.50
2023-02-18T19:10:50.095Z,5.87
2023-02-18T19:13:20.066Z,5.85
2023-02-18T19:15:48.392Z,5.84
2023-02-18T19:18:17.212Z,5.68
2023-02-18T19:20:44.204Z,5.60
2023-02-18T19:23:10.862Z,5.61
2023-02-18T19:25:38.819Z,5.78
2023-02-18T19:28:06.205Z,5.72
2023-02-18T19:30:35.916Z,5.71
2023-02-18T19:33:05.198Z,5.71
2023-02-18T19:35:32.637Z,5.68
2023-02-18T19:37:59.496Z,5.65
2023-02-18T19:40:29.628Z,5.58
2023-02-18T19:42:56.508Z,5.61
2023-02-18T19:45:23.312Z,5.56
2023-02-18T19:47:57.621Z,5.53
2023-02-18T19:50:25.801Z,5.55
2023-02-18T19:52:53.826Z,5.49
2023-02-18T19:55:20.340Z,5.51
2023-02-18T19:57:46.737Z,5.52
2023-02-18T20:00:15.996Z,5.44
2023-02-18T20:02:42.934Z,5.51
2023-02-18T20:05:11.389Z,5.52
2023-02-18T20:07:37.919Z,5.47
2023-02-18T20:10:10.200Z,5.49
2023-02-18T20:12:36.715Z,5.47
2023-02-18T20:15:04.017Z,5.46
2023-02-18T20:17:31.834Z,5.45
2023-02-18T20:19:58.363Z,5.20
2023-02-18T20:22:25.398Z,5.18
2023-02-18T20:24:51.820Z,5.44
2023-02-18T20:27:18.295Z,5.45
2023-02-18T20:29:44.916Z,5.46
2023-02-18T20:32:11.463Z,5.45
2023-02-18T20:34:38.033Z,5.26
2023-02-18T20:37:04.426Z,5.44
2023-02-18T20:39:31.031Z,5.45
2023-02-18T20:41:59.318Z,5.25
2023-02-18T20:44:29.483Z,5.41
2023-02-18T20:46:55.939Z,5.47
2023-02-18T20:49:22.574Z,5.48
2023-02-18T20:51:49.106Z,5.50
2023-02-18T20:54:19.604Z,5.52
2023-02-18T20:56:48.632Z,5.55
2023-02-18T20:59:17.734Z,5.57
2023-02-18T21:01:45.383Z,5.51
2023-02-18T21:04:13.568Z,5.66
2023-02-18T21:06:39.996Z,5.70
2023-02-18T21:09:06.510Z,5.70
2023-02-18T21:11:33.345Z,5.77
2023-02-18T21:14:00.064Z,5.59
2023-02-18T21:16:28.867Z,5.83
2023-02-18T21:18:55.429Z,5.83
2023-02-18T21:21:23.608Z,5.86
2023-02-18T21:23:50.938Z,5.90
2023-02-18T21:26:20.902Z,5.94
2023-02-18T21:28:49.110Z,5.89
2023-02-18T21:31:22.908Z,5.97
2023-02-18T21:33:49.942Z,5.78
2023-02-18T21:36:16.963Z,5.98
2023-02-18T21:38:44.812Z,5.61
2023-02-18T21:41:12.510Z,5.99
2023-02-18T21:43:39.314Z,5.94
2023-02-18T21:46:10.200Z,6.04
2023-02-18T21:48:55.128Z,6.05
2023-02-18T21:51:40.184Z,6.06
2023-02-18T21:54:07.043Z,6.09
2023-02-18T21:56:33.830Z,6.10
2023-02-18T21:59:00.302Z,6.13
2023-02-18T22:01:27.767Z,6.14
2023-02-18T22:03:57.303Z,6.06
2023-02-18T22:06:23.765Z,6.16
2023-02-18T22:08:50.160Z,6.19
2023-02-18T22:11:18.146Z,6.19
2023-02-18T22:13:44.618Z,6.02
2023-02-18T22:16:11.068Z,6.22
2023-02-18T22:18:37.552Z,6.23
2023-02-18T22:21:08.611Z,6.21
2023-02-18T22:23:35.486Z,6.22
2023-02-18T22:26:06.812Z,6.13
2023-02-18T22:28:34.160Z,6.22
2023-02-18T22:31:05.354Z,6.25
2023-02-18T22:33:31.814Z,6.15
2023-02-18T22:36:04.872Z,6.28
2023-02-18T22:38:32.940Z,6.26
2023-02-18T22:41:07.738Z,6.27
2023-02-18T22:43:35.040Z,6.30
2023-02-18T22:46:06.125Z,6.33
2023-02-18T22:48:34.396Z,6.29
2023-02-18T22:51:12.897Z,6.13
2023-02-18T22:53:40.151Z,6.37
2023-02-18T22:56:09.721Z,6.40
2023-02-18T22:58:36.618Z,6.31
2023-02-18T23:01:04.500Z,6.22
2023-02-18T23:03:31.160Z,6.43
2023-02-18T23:06:02.606Z,6.44
2023-02-18T23:08:29.462Z,6.17
2023-02-18T23:11:04.057Z,6.46
2023-02-18T23:13:31.052Z,6.34
2023-02-18T23:16:01.908Z,6.41
2023-02-18T23:18:29.238Z,6.46
2023-02-18T23:21:18.422Z,6.49
2023-02-18T23:23:46.267Z,6.47
2023-02-18T23:26:13.198Z,6.34
2023-02-18T23:28:48.762Z,6.17
2023-02-18T23:31:23.555Z,6.49
2023-02-18T23:33:53.779Z,6.46
2023-02-18T23:36:23.484Z,6.48
2023-02-18T23:39:00.556Z,6.52
2023-02-18T23:41:28.478Z,6.40
2023-02-18T23:43:55.454Z,6.54
2023-02-18T23:46:25.710Z,6.55
2023-02-18T23:48:52.064Z,6.66
2023-02-18T23:51:21.114Z,6.58
2023-02-18T23:53:47.525Z,6.57
2023-02-18T23:56:15.063Z,6.57
2023-02-18T23:58:43.503Z,6.55
